sensor_id;sensor_type;location;lat;lon;timestamp;pressure;altitude;pressure_sealevel;temperature;humidity
36828;BME280;22766;48.042;11.192;2023-03-03T00:01:14;95048.78;;;0.21;100.00
36828;BME280;22766;48.042;11.192;2023-03-03T00:03:41;95056.09;;;0.25;100.00
36828;BME280;22766;48.042;11.192;2023-03-03T00:06:10;95049.50;;;0.23;100.00
36828;BME280;22766;48.042;11.192;2023-03-03T00:08:37;95053.91;;;0.19;100.00
36828;BME280;22766;48.042;11.192;2023-03-03T00:11:04;95056.47;;;0.19;100.00
36828;BME280;22766;48.042;11.192;2023-03-03T00:13:54;95047.13;;;0.20;100.00
36828;BME280;22766;48.042;11.192;2023-03-03T00:16:25;95055.47;;;0.22;100.00
36828;BME280;22766;48.042;11.192;2023-03-03T00:18:53;95055.47;;;0.22;100.00
36828;BME280;22766;48.042;11.192;2023-03-03T00:21:41;95047.69;;;0.25;100.00
36828;BME280;22766;48.042;11.192;2023-03-03T00:24:23;95053.47;;;0.27;100.00
36828;BME280;22766;48.042;11.192;2023-03-03T00:26:55;95051.59;;;0.30;100.00
36828;BME280;22766;48.042;11.192;2023-03-03T00:29:27;95052.88;;;0.37;100.00
36828;BME280;22766;48.042;11.192;2023-03-03T00:31:58;95051.16;;;0.38;100.00
36828;BME280;22766;48.042;11.192;2023-03-03T00:34:29;95043.16;;;0.30;100.00
36828;BME280;22766;48.042;11.192;2023-03-03T00:36:57;95044.16;;;0.27;100.00
36828;BME280;22766;48.042;11.192;2023-03-03T00:41:57;95043.25;;;0.28;100.00
36828;BME280;22766;48.042;11.192;2023-03-03T00:44:54;95044.63;;;0.34;100.00
36828;BME280;22766;48.042;11.192;2023-03-03T00:50:16;95050.78;;;0.30;100.00
36828;BME280;22766;48.042;11.192;2023-03-03T00:52:46;95056.75;;;0.29;100.00
36828;BME280;22766;48.042;11.192;2023-03-03T00:55:18;95054.19;;;0.29;100.00
36828;BME280;22766;48.042;11.192;2023-03-03T00:57:45;95057.56;;;0.29;100.00
36828;BME280;22766;48.042;11.192;2023-03-03T01:00:13;95060.19;;;0.28;100.00
36828;BME280;22766;48.042;11.192;2023-03-03T01:02:40;95061.91;;;0.27;100.00
36828;BME280;22766;48.042;11.192;2023-03-03T01:05:08;95071.97;;;0.29;100.00
36828;BME280;22766;48.042;11.192;2023-03-03T01:07:38;95064.47;;;0.27;100.00
36828;BME280;22766;48.042;11.192;2023-03-03T01:10:05;95062.84;;;0.26;100.00
36828;BME280;22766;48.042;11.192;2023-03-03T01:12:33;95069.53;;;0.27;100.00
36828;BME280;22766;48.042;11.192;2023-03-03T01:14:59;95061.47;;;0.35;100.00
36828;BME280;22766;48.042;11.192;2023-03-03T01:17:26;95071.97;;;0.29;100.00
36828;BME280;22766;48.042;11.192;2023-03-03T01:19:55;95063.28;;;0.33;100.00
36828;BME280;22766;48.042;11.192;2023-03-03T01:22:22;95058.03;;;0.36;100.00
36828;BME280;22766;48.042;11.192;2023-03-03T01:24:49;95059.75;;;0.35;100.00
36828;BME280;22766;48.042;11.192;2023-03-03T01:27:15;95058.31;;;0.45;100.00
36828;BME280;22766;48.042;11.192;2023-03-03T01:29:42;95054.69;;;0.49;100.00
36828;BME280;22766;48.042;11.192;2023-03-03T01:32:09;95060.03;;;0.45;100.00
36828;BME280;22766;48.042;11.192;2023-03-03T01:34:35;95059.03;;;0.47;100.00
36828;BME280;22766;48.042;11.192;2023-03-03T01:37:03;95050.84;;;0.42;100.00
36828;BME280;22766;48.042;11.192;2023-03-03T01:39:29;95055.78;;;0.45;100.00
36828;BME280;22766;48.042;11.192;2023-03-03T01:41:56;95046.06;;;0.52;100.00
36828;BME280;22766;48.042;11.192;2023-03-03T01:44:23;95051.22;;;0.50;100.00
36828;BME280;22766;48.042;11.192;2023-03-03T01:49:55;95050.25;;;0.53;100.00
36828;BME280;22766;48.042;11.192;2023-03-03T01:52:27;95049.50;;;0.51;100.00
36828;BME280;22766;48.042;11.192;2023-03-03T01:54:56;95043.06;;;0.59;100.00
36828;BME280;22766;48.042;11.192;2023-03-03T01:57:32;95043.34;;;0.55;100.00
36828;BME280;22766;48.042;11.192;2023-03-03T02:00:03;95045.78;;;0.56;100.00
36828;BME280;22766;48.042;11.192;2023-03-03T02:02:38;95038.91;;;0.58;100.00
36828;BME280;22766;48.042;11.192;2023-03-03T02:05:06;95037.44;;;0.54;100.00
36828;BME280;22766;48.042;11.192;2023-03-03T02:07:34;95039.63;;;0.46;100.00
36828;BME280;22766;48.042;11.192;2023-03-03T02:15:14;95036.97;;;0.20;100.00
36828;BME280;22766;48.042;11.192;2023-03-03T02:17:42;95036.25;;;0.18;100.00
36828;BME280;22766;48.042;11.192;2023-03-03T02:22:54;95038.34;;;0.11;100.00
36828;BME280;22766;48.042;11.192;2023-03-03T02:28:28;95031.81;;;0.21;100.00
36828;BME280;22766;48.042;11.192;2023-03-03T02:30:56;95034.72;;;0.15;100.00
36828;BME280;22766;48.042;11.192;2023-03-03T02:33:24;95032.53;;;0.09;100.00
36828;BME280;22766;48.042;11.192;2023-03-03T02:35:52;95029.44;;;0.04;100.00
36828;BME280;22766;48.042;11.192;2023-03-03T02:41:38;95026.00;;;0.05;100.00
36828;BME280;22766;48.042;11.192;2023-03-03T02:44:04;95023.91;;;-0.03;100.00
36828;BME280;22766;48.042;11.192;2023-03-03T02:46:37;95021.47;;;-0.04;100.00
36828;BME280;22766;48.042;11.192;2023-03-03T02:49:06;95024.69;;;-0.16;100.00
36828;BME280;22766;48.042;11.192;2023-03-03T02:51:34;95017.00;;;-0.15;100.00
36828;BME280;22766;48.042;11.192;2023-03-03T02:54:03;95021.63;;;-0.21;100.00
36828;BME280;22766;48.042;11.192;2023-03-03T02:56:31;95022.06;;;-0.29;100.00
36828;BME280;22766;48.042;11.192;2023-03-03T02:58:58;95021.66;;;-0.37;100.00
36828;BME280;22766;48.042;11.192;2023-03-03T03:01:26;95023.38;;;-0.37;100.00
36828;BME280;22766;48.042;11.192;2023-03-03T03:03:53;95019.47;;;-0.43;100.00
36828;BME280;22766;48.042;11.192;2023-03-03T03:06:21;95022.34;;;-0.49;100.00
36828;BME280;22766;48.042;11.192;2023-03-03T03:08:48;95022.44;;;-0.50;100.00
36828;BME280;22766;48.042;11.192;2023-03-03T03:11:15;95016.94;;;-0.43;100.00
36828;BME280;22766;48.042;11.192;2023-03-03T03:13:42;95016.84;;;-0.41;100.00
36828;BME280;22766;48.042;11.192;2023-03-03T03:16:11;95014.94;;;-0.38;100.00
36828;BME280;22766;48.042;11.192;2023-03-03T03:18:38;95017.13;;;-0.32;100.00
36828;BME280;22766;48.042;11.192;2023-03-03T03:21:09;95017.31;;;-0.35;100.00
36828;BME280;22766;48.042;11.192;2023-03-03T03:23:38;95017.75;;;-0.42;100.00
36828;BME280;22766;48.042;11.192;2023-03-03T03:26:06;95018.25;;;-0.51;100.00
36828;BME280;22766;48.042;11.192;2023-03-03T03:28:33;95017.06;;;-0.60;100.00
36828;BME280;22766;48.042;11.192;2023-03-03T03:31:01;95021.72;;;-0.68;100.00
36828;BME280;22766;48.042;11.192;2023-03-03T03:33:28;95028.22;;;-0.78;100.00
36828;BME280;22766;48.042;11.192;2023-03-03T03:35:57;95027.19;;;-0.89;100.00
36828;BME280;22766;48.042;11.192;2023-03-03T03:38:24;95035.25;;;-0.99;100.00
36828;BME280;22766;48.042;11.192;2023-03-03T03:40:53;95028.34;;;-0.95;100.00
36828;BME280;22766;48.042;11.192;2023-03-03T03:43:21;95036.25;;;-1.01;100.00
36828;BME280;22766;48.042;11.192;2023-03-03T03:45:48;95039.53;;;-0.99;100.00
36828;BME280;22766;48.042;11.192;2023-03-03T03:48:15;95038.53;;;-0.97;100.00
36828;BME280;22766;48.042;11.192;2023-03-03T03:50:46;95035.84;;;-0.93;100.00
36828;BME280;22766;48.042;11.192;2023-03-03T03:53:14;95035.56;;;-0.89;100.00
36828;BME280;22766;48.042;11.192;2023-03-03T03:55:41;95044.00;;;-0.88;100.00
36828;BME280;22766;48.042;11.192;2023-03-03T03:58:12;95046.13;;;-0.81;100.00
36828;BME280;22766;48.042;11.192;2023-03-03T04:00:40;95044.31;;;-0.79;100.00
36828;BME280;22766;48.042;11.192;2023-03-03T04:03:08;95033.22;;;-0.76;100.00
36828;BME280;22766;48.042;11.192;2023-03-03T04:05:36;95030.75;;;-0.78;100.00
36828;BME280;22766;48.042;11.192;2023-03-03T04:08:05;95023.88;;;-0.76;100.00
36828;BME280;22766;48.042;11.192;2023-03-03T04:10:32;95030.41;;;-0.72;100.00
36828;BME280;22766;48.042;11.192;2023-03-03T04:12:59;95035.13;;;-0.66;100.00
36828;BME280;22766;48.042;11.192;2023-03-03T04:15:25;95025.63;;;-0.62;100.00
36828;BME280;22766;48.042;11.192;2023-03-03T04:17:53;95026.47;;;-0.62;100.00
36828;BME280;22766;48.042;11.192;2023-03-03T04:20:20;95029.00;;;-0.62;100.00
36828;BME280;22766;48.042;11.192;2023-03-03T04:22:47;95032.91;;;-0.56;100.00
36828;BME280;22766;48.042;11.192;2023-03-03T04:25:15;95031.13;;;-0.54;100.00
36828;BME280;22766;48.042;11.192;2023-03-03T04:27:43;95038.47;;;-0.50;100.00
36828;BME280;22766;48.042;11.192;2023-03-03T04:30:14;95027.06;;;-0.43;100.00
36828;BME280;22766;48.042;11.192;2023-03-03T04:32:44;95026.16;;;-0.42;100.00
36828;BME280;22766;48.042;11.192;2023-03-03T04:35:12;95038.94;;;-0.43;100.00
36828;BME280;22766;48.042;11.192;2023-03-03T04:37:41;95032.78;;;-0.39;100.00
36828;BME280;22766;48.042;11.192;2023-03-03T04:40:10;95034.81;;;-0.30;100.00
36828;BME280;22766;48.042;11.192;2023-03-03T04:42:38;95038.00;;;-0.27;100.00
36828;BME280;22766;48.042;11.192;2023-03-03T04:45:07;95030.75;;;-0.33;100.00
36828;BME280;22766;48.042;11.192;2023-03-03T04:47:35;95036.44;;;-0.29;100.00
36828;BME280;22766;48.042;11.192;2023-03-03T04:50:02;95044.88;;;-0.29;100.00
36828;BME280;22766;48.042;11.192;2023-03-03T04:52:31;95034.81;;;-0.30;100.00
36828;BME280;22766;48.042;11.192;2023-03-03T04:54:57;95030.56;;;-0.30;100.00
36828;BME280;22766;48.042;11.192;2023-03-03T04:57:25;95033.81;;;-0.28;100.00
36828;BME280;22766;48.042;11.192;2023-03-03T04:59:53;95031.66;;;-0.20;100.00
36828;BME280;22766;48.042;11.192;2023-03-03T05:02:19;95034.22;;;-0.20;100.00
36828;BME280;22766;48.042;11.192;2023-03-03T05:04:47;95035.91;;;-0.20;100.00
36828;BME280;22766;48.042;11.192;2023-03-03T05:07:13;95036.47;;;-0.15;100.00
36828;BME280;22766;48.042;11.192;2023-03-03T05:09:40;95034.03;;;-0.17;100.00
36828;BME280;22766;48.042;11.192;2023-03-03T05:12:07;95041.47;;;-0.14;100.00
36828;BME280;22766;48.042;11.192;2023-03-03T05:14:33;95040.56;;;-0.13;100.00
36828;BME280;22766;48.042;11.192;2023-03-03T05:17:01;95040.47;;;-0.11;100.00
36828;BME280;22766;48.042;11.192;2023-03-03T05:19:28;95040.31;;;-0.08;100.00
36828;BME280;22766;48.042;11.192;2023-03-03T05:21:55;95038.41;;;-0.05;100.00
36828;BME280;22766;48.042;11.192;2023-03-03T05:24:23;95038.22;;;-0.02;100.00
36828;BME280;22766;48.042;11.192;2023-03-03T05:26:49;95031.34;;;0.00;100.00
36828;BME280;22766;48.042;11.192;2023-03-03T05:29:16;95029.53;;;0.03;100.00
36828;BME280;22766;48.042;11.192;2023-03-03T05:31:43;95032.69;;;0.06;100.00
36828;BME280;22766;48.042;11.192;2023-03-03T05:34:11;95045.38;;;0.06;100.00
36828;BME280;22766;48.042;11.192;2023-03-03T05:36:37;95044.59;;;0.06;100.00
36828;BME280;22766;48.042;11.192;2023-03-03T05:39:04;95039.41;;;0.07;100.00
36828;BME280;22766;48.042;11.192;2023-03-03T05:41:31;95046.84;;;0.10;100.00
36828;BME280;22766;48.042;11.192;2023-03-03T05:43:58;95047.56;;;0.12;100.00
36828;BME280;22766;48.042;11.192;2023-03-03T05:46:24;95046.50;;;0.16;100.00
36828;BME280;22766;48.042;11.192;2023-03-03T05:48:51;95054.94;;;0.17;100.00
36828;BME280;22766;48.042;11.192;2023-03-03T05:51:18;95057.28;;;0.20;100.00
36828;BME280;22766;48.042;11.192;2023-03-03T05:53:45;95048.59;;;0.24;100.00
36828;BME280;22766;48.042;11.192;2023-03-03T05:56:11;95062.09;;;0.24;100.00
36828;BME280;22766;48.042;11.192;2023-03-03T05:58:38;95069.53;;;0.27;100.00
36828;BME280;22766;48.042;11.192;2023-03-03T06:01:04;95064.66;;;0.24;100.00
36828;BME280;22766;48.042;11.192;2023-03-03T06:03:31;95072.16;;;0.26;100.00
36828;BME280;22766;48.042;11.192;2023-03-03T06:05:58;95068.00;;;0.25;100.00
36828;BME280;22766;48.042;11.192;2023-03-03T06:08:25;95073.16;;;0.23;100.00
36828;BME280;22766;48.042;11.192;2023-03-03T06:10:52;95076.31;;;0.27;100.00
36828;BME280;22766;48.042;11.192;2023-03-03T06:13:19;95079.78;;;0.26;100.00
36828;BME280;22766;48.042;11.192;2023-03-03T06:15:45;95079.59;;;0.29;100.00
36828;BME280;22766;48.042;11.192;2023-03-03T06:18:12;95077.06;;;0.29;100.00
36828;BME280;22766;48.042;11.192;2023-03-03T06:20:39;95082.88;;;0.31;100.00
36828;BME280;22766;48.042;11.192;2023-03-03T06:23:05;95084.22;;;0.36;100.00
36828;BME280;22766;48.042;11.192;2023-03-03T06:25:32;95083.44;;;0.36;100.00
36828;BME280;22766;48.042;11.192;2023-03-03T06:28:02;95088.41;;;0.37;100.00
36828;BME280;22766;48.042;11.192;2023-03-03T06:30:29;95089.03;;;0.27;100.00
36828;BME280;22766;48.042;11.192;2023-03-03T06:32:56;95096.22;;;0.34;100.00
36828;BME280;22766;48.042;11.192;2023-03-03T06:35:23;95097.94;;;0.34;100.00
36828;BME280;22766;48.042;11.192;2023-03-03T06:37:50;95099.47;;;0.22;100.00
36828;BME280;22766;48.042;11.192;2023-03-03T06:40:17;95107.59;;;0.13;100.00
36828;BME280;22766;48.042;11.192;2023-03-03T06:42:44;95112.84;;;0.10;100.00
36828;BME280;22766;48.042;11.192;2023-03-03T06:45:11;95105.44;;;0.21;100.00
36828;BME280;22766;48.042;11.192;2023-03-03T06:47:38;95104.25;;;0.13;100.00
36828;BME280;22766;48.042;11.192;2023-03-03T06:50:05;95105.72;;;0.17;100.00
36828;BME280;22766;48.042;11.192;2023-03-03T06:52:32;95108.78;;;0.22;100.00
36828;BME280;22766;48.042;11.192;2023-03-03T06:55:01;95111.88;;;0.27;100.00
36828;BME280;22766;48.042;11.192;2023-03-03T06:57:35;95115.81;;;0.32;100.00
36828;BME280;22766;48.042;11.192;2023-03-03T07:00:16;95117.06;;;0.39;100.00
36828;BME280;22766;48.042;11.192;2023-03-03T07:02:43;95118.53;;;0.43;100.00
36828;BME280;22766;48.042;11.192;2023-03-03T07:05:16;95119.81;;;0.50;100.00
36828;BME280;22766;48.042;11.192;2023-03-03T07:07:43;95120.34;;;0.55;100.00
36828;BME280;22766;48.042;11.192;2023-03-03T07:10:26;95122.44;;;0.63;100.00
36828;BME280;22766;48.042;11.192;2023-03-03T07:12:53;95120.56;;;0.66;100.00
36828;BME280;22766;48.042;11.192;2023-03-03T07:15:29;95117.81;;;0.69;100.00
36828;BME280;22766;48.042;11.192;2023-03-03T07:17:58;95124.72;;;0.67;100.00
36828;BME280;22766;48.042;11.192;2023-03-03T07:20:32;95123.63;;;0.71;100.00
36828;BME280;22766;48.042;11.192;2023-03-03T07:23:14;95132.81;;;0.74;100.00
36828;BME280;22766;48.042;11.192;2023-03-03T07:25:44;95131.88;;;0.75;100.00
36828;BME280;22766;48.042;11.192;2023-03-03T07:28:27;95133.34;;;0.79;100.00
36828;BME280;22766;48.042;11.192;2023-03-03T07:30:56;95137.25;;;0.84;100.00
36828;BME280;22766;48.042;11.192;2023-03-03T07:33:33;95148.59;;;0.93;100.00
36828;BME280;22766;48.042;11.192;2023-03-03T07:36:01;95142.59;;;0.94;100.00
36828;BME280;22766;48.042;11.192;2023-03-03T07:38:45;95143.13;;;0.99;100.00
36828;BME280;22766;48.042;11.192;2023-03-03T07:41:17;95150.13;;;0.95;100.00
36828;BME280;22766;48.042;11.192;2023-03-03T07:44:04;95154.31;;;0.97;100.00
36828;BME280;22766;48.042;11.192;2023-03-03T07:46:50;95159.47;;;0.95;100.00
36828;BME280;22766;48.042;11.192;2023-03-03T07:51:54;95158.66;;;1.09;100.00
36828;BME280;22766;48.042;11.192;2023-03-03T07:54:34;95167.56;;;1.16;100.00
36828;BME280;22766;48.042;11.192;2023-03-03T07:57:18;95168.09;;;1.21;100.00
36828;BME280;22766;48.042;11.192;2023-03-03T08:03:11;95160.94;;;1.13;100.00
36828;BME280;22766;48.042;11.192;2023-03-03T08:05:33;95164.56;;;1.09;100.00
36828;BME280;22766;48.042;11.192;2023-03-03T08:08:21;95158.59;;;1.10;100.00
36828;BME280;22766;48.042;11.192;2023-03-03T08:10:53;95164.94;;;1.17;100.00
36828;BME280;22766;48.042;11.192;2023-03-03T08:13:40;95161.47;;;1.18;100.00
36828;BME280;22766;48.042;11.192;2023-03-03T08:18:37;95166.66;;;1.31;100.00
36828;BME280;22766;48.042;11.192;2023-03-03T08:21:24;95163.84;;;1.62;100.00
36828;BME280;22766;48.042;11.192;2023-03-03T08:23:52;95164.28;;;1.95;100.00
36828;BME280;22766;48.042;11.192;2023-03-03T08:26:20;95162.66;;;1.94;100.00
36828;BME280;22766;48.042;11.192;2023-03-03T08:28:47;95164.72;;;2.02;100.00
36828;BME280;22766;48.042;11.192;2023-03-03T08:31:15;95166.50;;;1.87;100.00
36828;BME280;22766;48.042;11.192;2023-03-03T08:34:03;95157.25;;;1.86;100.00
36828;BME280;22766;48.042;11.192;2023-03-03T08:36:29;95155.50;;;1.86;100.00
36828;BME280;22766;48.042;11.192;2023-03-03T08:39:00;95161.03;;;1.93;100.00
36828;BME280;22766;48.042;11.192;2023-03-03T08:41:27;95157.38;;;1.97;100.00
36828;BME280;22766;48.042;11.192;2023-03-03T08:43:54;95156.44;;;1.98;100.00
36828;BME280;22766;48.042;11.192;2023-03-03T08:46:20;95161.03;;;1.93;100.00
36828;BME280;22766;48.042;11.192;2023-03-03T08:48:47;95164.47;;;1.92;100.00
36828;BME280;22766;48.042;11.192;2023-03-03T08:51:15;95165.88;;;2.10;100.00
36828;BME280;22766;48.042;11.192;2023-03-03T08:53:41;95165.34;;;2.05;100.00
36828;BME280;22766;48.042;11.192;2023-03-03T08:56:08;95165.53;;;2.02;100.00
36828;BME280;22766;48.042;11.192;2023-03-03T08:58:36;95171.34;;;2.04;100.00
36828;BME280;22766;48.042;11.192;2023-03-03T09:01:03;95163.25;;;1.98;100.00
36828;BME280;22766;48.042;11.192;2023-03-03T09:03:30;95163.84;;;2.15;100.00
36828;BME280;22766;48.042;11.192;2023-03-03T09:05:57;95165.91;;;2.23;100.00
36828;BME280;22766;48.042;11.192;2023-03-03T09:08:23;95173.38;;;2.38;100.00
36828;BME280;22766;48.042;11.192;2023-03-03T09:10:50;95181.84;;;2.39;100.00
36828;BME280;22766;48.042;11.192;2023-03-03T09:13:18;95181.75;;;2.53;100.00
36828;BME280;22766;48.042;11.192;2023-03-03T09:15:46;95185.94;;;2.54;100.00
36828;BME280;22766;48.042;11.192;2023-03-03T09:18:17;95189.22;;;2.68;100.00
36828;BME280;22766;48.042;11.192;2023-03-03T09:25:58;95191.16;;;3.03;100.00
36828;BME280;22766;48.042;11.192;2023-03-03T09:28:37;95187.91;;;3.13;100.00
36828;BME280;22766;48.042;11.192;2023-03-03T09:31:20;95190.56;;;3.24;100.00
36828;BME280;22766;48.042;11.192;2023-03-03T09:33:47;95185.56;;;3.71;100.00
36828;BME280;22766;48.042;11.192;2023-03-03T09:36:36;95190.72;;;3.83;100.00
36828;BME280;22766;48.042;11.192;2023-03-03T09:39:30;95193.22;;;3.95;100.00
36828;BME280;22766;48.042;11.192;2023-03-03T10:05:50;95227.28;;;4.43;100.00
36828;BME280;22766;48.042;11.192;2023-03-03T10:08:32;95226.19;;;4.34;100.00
36828;BME280;22766;48.042;11.192;2023-03-03T10:24:51;95228.72;;;4.93;100.00
36828;BME280;22766;48.042;11.192;2023-03-03T10:27:40;95226.16;;;4.82;100.00
36828;BME280;22766;48.042;11.192;2023-03-03T10:41:49;95231.13;;;4.72;100.00
36828;BME280;22766;48.042;11.192;2023-03-03T10:44:30;95226.53;;;4.99;100.00
36828;BME280;22766;48.042;11.192;2023-03-03T10:47:37;95230.72;;;4.65;100.00
36828;BME280;22766;48.042;11.192;2023-03-03T10:50:24;95227.06;;;4.81;100.00
36828;BME280;22766;48.042;11.192;2023-03-03T10:53:21;95225.16;;;5.06;100.00
36828;BME280;22766;48.042;11.192;2023-03-03T11:01:20;95217.59;;;4.94;100.00
36828;BME280;22766;48.042;11.192;2023-03-03T11:06:53;95212.97;;;5.21;100.00
36828;BME280;22766;48.042;11.192;2023-03-03T11:09:56;95218.09;;;5.54;100.00
36828;BME280;22766;48.042;11.192;2023-03-03T11:15:40;95225.66;;;5.55;100.00
36828;BME280;22766;48.042;11.192;2023-03-03T11:26:35;95232.19;;;5.37;100.00
36828;BME280;22766;48.042;11.192;2023-03-03T11:35:41;95227.06;;;5.70;100.00
36828;BME280;22766;48.042;11.192;2023-03-03T11:40:50;95226.41;;;5.91;100.00
36828;BME280;22766;48.042;11.192;2023-03-03T11:43:32;95226.94;;;6.05;100.00
36828;BME280;22766;48.042;11.192;2023-03-03T11:46:10;95210.03;;;6.03;100.00
36828;BME280;22766;48.042;11.192;2023-03-03T11:54:21;95219.75;;;5.66;100.00
36828;BME280;22766;48.042;11.192;2023-03-03T11:56:49;95213.09;;;5.86;100.00
36828;BME280;22766;48.042;11.192;2023-03-03T12:02:22;95207.38;;;5.71;100.00
36828;BME280;22766;48.042;11.192;2023-03-03T12:05:00;95204.25;;;5.67;100.00
36828;BME280;22766;48.042;11.192;2023-03-03T12:13:35;95190.41;;;5.26;100.00
36828;BME280;22766;48.042;11.192;2023-03-03T12:16:11;95195.28;;;5.18;100.00
36828;BME280;22766;48.042;11.192;2023-03-03T12:27:02;95192.84;;;5.27;100.00
36828;BME280;22766;48.042;11.192;2023-03-03T12:38:39;95183.50;;;5.70;100.00
36828;BME280;22766;48.042;11.192;2023-03-03T12:41:26;95179.44;;;5.79;100.00
36828;BME280;22766;48.042;11.192;2023-03-03T12:48:58;95180.44;;;6.10;100.00
36828;BME280;22766;48.042;11.192;2023-03-03T12:51:55;95181.06;;;6.34;100.00
36828;BME280;22766;48.042;11.192;2023-03-03T13:03:00;95183.75;;;6.32;100.00
36828;BME280;22766;48.042;11.192;2023-03-03T13:11:23;95186.63;;;6.39;100.00
36828;BME280;22766;48.042;11.192;2023-03-03T13:16:55;95196.06;;;6.49;100.00
36828;BME280;22766;48.042;11.192;2023-03-03T13:19:39;95179.13;;;6.26;100.00
36828;BME280;22766;48.042;11.192;2023-03-03T13:22:13;95177.72;;;6.22;100.00
36828;BME280;22766;48.042;11.192;2023-03-03T13:27:15;95173.44;;;6.12;100.00
36828;BME280;22766;48.042;11.192;2023-03-03T13:30:16;95182.69;;;6.35;100.00
36828;BME280;22766;48.042;11.192;2023-03-03T13:38:11;95182.81;;;6.02;100.00
36828;BME280;22766;48.042;11.192;2023-03-03T13:40:43;95190.59;;;6.11;100.00
36828;BME280;22766;48.042;11.192;2023-03-03T13:46:10;95192.47;;;5.87;100.00
36828;BME280;22766;48.042;11.192;2023-03-03T13:48:46;95187.22;;;5.78;100.00
36828;BME280;22766;48.042;11.192;2023-03-03T13:59:27;95168.69;;;6.39;100.00
36828;BME280;22766;48.042;11.192;2023-03-03T14:18:57;95144.06;;;6.68;100.00
36828;BME280;22766;48.042;11.192;2023-03-03T14:21:33;95141.63;;;6.87;100.00
36828;BME280;22766;48.042;11.192;2023-03-03T14:26:54;95141.78;;;6.95;100.00
36828;BME280;22766;48.042;11.192;2023-03-03T14:32:00;95130.50;;;6.56;100.00
36828;BME280;22766;48.042;11.192;2023-03-03T14:34:38;95131.88;;;6.29;100.00
36828;BME280;22766;48.042;11.192;2023-03-03T14:37:28;95127.72;;;6.28;100.00
36828;BME280;22766;48.042;11.192;2023-03-03T14:40:15;95131.47;;;5.92;100.00
36828;BME280;22766;48.042;11.192;2023-03-03T14:45:38;95135.28;;;6.50;100.00
36828;BME280;22766;48.042;11.192;2023-03-03T14:48:22;95133.56;;;6.50;100.00
36828;BME280;22766;48.042;11.192;2023-03-03T14:50:52;95135.94;;;6.11;100.00
36828;BME280;22766;48.042;11.192;2023-03-03T14:53:38;95141.59;;;5.94;100.00
36828;BME280;22766;48.042;11.192;2023-03-03T14:58:51;95132.91;;;6.17;100.00
36828;BME280;22766;48.042;11.192;2023-03-03T15:01:28;95138.72;;;6.19;100.00
36828;BME280;22766;48.042;11.192;2023-03-03T15:06:50;95148.97;;;6.19;100.00
36828;BME280;22766;48.042;11.192;2023-03-03T15:11:51;95145.53;;;6.29;100.00
36828;BME280;22766;48.042;11.192;2023-03-03T15:14:20;95148.19;;;6.07;100.00
36828;BME280;22766;48.042;11.192;2023-03-03T15:16:48;95146.38;;;5.87;100.00
36828;BME280;22766;48.042;11.192;2023-03-03T15:19:35;95140.75;;;5.82;100.00
36828;BME280;22766;48.042;11.192;2023-03-03T15:22:18;95156.66;;;5.54;100.00
36828;BME280;22766;48.042;11.192;2023-03-03T15:25:03;95153.16;;;5.33;100.00
36828;BME280;22766;48.042;11.192;2023-03-03T15:27:38;95148.16;;;5.09;100.00
36828;BME280;22766;48.042;11.192;2023-03-03T15:30:20;95149.91;;;5.09;100.00
36828;BME280;22766;48.042;11.192;2023-03-03T15:32:58;95143.84;;;5.10;100.00
36828;BME280;22766;48.042;11.192;2023-03-03T15:54:40;95156.91;;;6.36;100.00
36828;BME280;22766;48.042;11.192;2023-03-03T15:57:16;95154.56;;;6.13;100.00
36828;BME280;22766;48.042;11.192;2023-03-03T16:02:45;95156.28;;;5.58;100.00
36828;BME280;22766;48.042;11.192;2023-03-03T16:05:31;95158.88;;;5.25;100.00
36828;BME280;22766;48.042;11.192;2023-03-03T16:10:39;95163.63;;;5.08;100.00
36828;BME280;22766;48.042;11.192;2023-03-03T16:21:42;95166.28;;;4.38;100.00
36828;BME280;22766;48.042;11.192;2023-03-03T16:35:42;95174.69;;;3.80;100.00
36828;BME280;22766;48.042;11.192;2023-03-03T16:38:16;95174.53;;;3.71;100.00
36828;BME280;22766;48.042;11.192;2023-03-03T16:40:57;95177.50;;;3.65;100.00
36828;BME280;22766;48.042;11.192;2023-03-03T16:47:01;95183.91;;;3.34;100.00
36828;BME280;22766;48.042;11.192;2023-03-03T16:51:55;95186.59;;;2.95;100.00
36828;BME280;22766;48.042;11.192;2023-03-03T16:54:46;95191.47;;;2.85;100.00
36828;BME280;22766;48.042;11.192;2023-03-03T16:57:43;95193.63;;;2.79;100.00
36828;BME280;22766;48.042;11.192;2023-03-03T17:00:27;95195.75;;;2.72;100.00
36828;BME280;22766;48.042;11.192;2023-03-03T17:05:52;95193.91;;;2.62;100.00
36828;BME280;22766;48.042;11.192;2023-03-03T17:11:20;95199.13;;;2.34;100.00
36828;BME280;22766;48.042;11.192;2023-03-03T17:30:34;95218.09;;;1.48;100.00
36828;BME280;22766;48.042;11.192;2023-03-03T17:44:48;95235.22;;;1.04;100.00
36828;BME280;22766;48.042;11.192;2023-03-03T18:10:05;95261.56;;;0.44;100.00
36828;BME280;22766;48.042;11.192;2023-03-03T18:12:42;95261.50;;;0.45;100.00
36828;BME280;22766;48.042;11.192;2023-03-03T18:23:45;95270.31;;;0.54;100.00
36828;BME280;22766;48.042;11.192;2023-03-03T18:26:33;95273.03;;;0.51;100.00
36828;BME280;22766;48.042;11.192;2023-03-03T18:39:48;95272.94;;;0.52;100.00
36828;BME280;22766;48.042;11.192;2023-03-03T18:44:42;95284.28;;;0.31;100.00
36828;BME280;22766;48.042;11.192;2023-03-03T18:47:10;95273.34;;;0.15;100.00
36828;BME280;22766;48.042;11.192;2023-03-03T18:52:33;95278.31;;;-0.15;100.00
36828;BME280;22766;48.042;11.192;2023-03-03T18:55:21;95280.38;;;-0.21;100.00
36828;BME280;22766;48.042;11.192;2023-03-03T18:58:23;95275.78;;;-0.30;100.00
36828;BME280;22766;48.042;11.192;2023-03-03T19:08:58;95283.38;;;-0.30;100.00
36828;BME280;22766;48.042;11.192;2023-03-03T19:16:43;95278.72;;;-0.53;100.00
36828;BME280;22766;48.042;11.192;2023-03-03T19:19:13;95278.94;;;-0.58;100.00